Time;durP1;ratioP1;P1;durP2;ratioP2;P2;SDS_P1;SDS_P2;PMS_P1;PMS_P2;Temp;Humidity;BMP_temperature;BMP_pressure;BME280_temperature;BME280_humidity;BME280_pressure;Samples;Min_cycle;Max_cycle;Signal;HPM_P1;HPM_P2
2022/06/17 00:01:50;;;;;;;2.47;1.90;;;17.90;99.90;;;;;;4937119;29;20226;-71
2022/06/17 00:04:17;;;;;;;3.97;2.07;;;17.90;99.90;;;;;;4928966;29;20576;-71
2022/06/17 00:06:54;;;;;;;3.93;2.10;;;17.90;99.90;;;;;;4925147;29;20693;-71
2022/06/17 00:09:23;;;;;;;2.60;1.83;;;17.80;99.90;;;;;;4934654;29;20230;-72
2022/06/17 00:11:50;;;;;;;4.90;2.23;;;17.70;99.90;;;;;;4925982;29;20223;-71
2022/06/17 00:14:24;;;;;;;2.87;1.97;;;17.60;99.90;;;;;;4930097;29;20199;-71
2022/06/17 00:16:50;;;;;;;3.70;2.27;;;17.60;99.90;;;;;;4931098;29;20614;-71
2022/06/17 00:19:18;;;;;;;3.53;2.10;;;17.60;99.90;;;;;;4929777;29;20203;-72
2022/06/17 00:21:49;;;;;;;3.27;2.23;;;17.50;99.90;;;;;;4921927;29;20233;-71
2022/06/17 00:24:24;;;;;;;3.37;2.07;;;17.50;99.90;;;;;;4926571;29;20206;-70
2022/06/17 00:26:53;;;;;;;2.67;2.00;;;17.40;99.90;;;;;;4929354;29;20217;-71
2022/06/17 00:29:22;;;;;;;3.43;2.20;;;17.40;99.90;;;;;;4930189;29;20226;-71
2022/06/17 00:31:49;;;;;;;2.30;1.97;;;17.30;99.90;;;;;;4957091;28;20219;-71
2022/06/17 00:34:16;;;;;;;2.70;2.03;;;17.20;99.90;;;;;;4928174;29;20192;-71
2022/06/17 00:36:43;;;;;;;4.23;2.30;;;17.10;99.90;;;;;;4930449;29;20199;-70
2022/06/17 00:39:19;;;;;;;4.20;2.53;;;17.10;99.90;;;;;;4931037;29;20261;-71
2022/06/17 00:41:50;;;;;;;4.20;2.37;;;17.00;99.90;;;;;;4927867;29;20229;-70
2022/06/17 00:44:38;;;;;;;3.47;2.40;;;16.90;99.90;;;;;;4919921;29;20198;-71
2022/06/17 00:47:23;;;;;;;2.77;2.40;;;16.90;99.90;;;;;;4932640;29;20213;-70
2022/06/17 00:50:05;;;;;;;4.13;2.43;;;16.90;99.90;;;;;;4928538;29;20238;-70
2022/06/17 00:52:58;;;;;;;2.87;2.47;;;16.80;99.90;;;;;;4930329;29;20310;-71
2022/06/17 00:55:33;;;;;;;5.00;2.50;;;16.80;99.90;;;;;;4926710;29;20225;-70
2022/06/17 00:58:01;;;;;;;3.40;2.23;;;16.90;99.90;;;;;;4930641;29;20669;-71
2022/06/17 01:00:31;;;;;;;2.17;1.97;;;16.90;99.90;;;;;;4920190;29;20196;-71
2022/06/17 01:03:08;;;;;;;3.20;2.50;;;16.80;99.90;;;;;;4926272;29;20203;-71
2022/06/17 01:06:01;;;;;;;3.47;2.40;;;16.60;99.90;;;;;;4927313;29;20525;-70
2022/06/17 01:11:22;;;;;;;4.07;2.67;;;16.60;99.90;;;;;;4920387;29;20242;-69
2022/06/17 01:13:51;;;;;;;4.30;2.60;;;16.70;99.90;;;;;;4919469;29;20215;-71
2022/06/17 01:16:23;;;;;;;3.30;2.30;;;16.70;99.90;;;;;;4921386;29;20201;-71
2022/06/17 01:18:53;;;;;;;3.67;2.47;;;16.70;99.90;;;;;;4921651;29;20774;-72
2022/06/17 01:21:36;;;;;;;2.93;2.40;;;16.70;99.90;;;;;;4925292;29;20227;-70
2022/06/17 01:24:04;;;;;;;2.67;2.13;;;16.50;99.90;;;;;;4923663;29;20211;-71
2022/06/17 01:26:30;;;;;;;4.00;2.50;;;16.20;99.90;;;;;;4933731;29;20206;-73
2022/06/17 01:28:57;;;;;;;3.80;2.50;;;16.20;99.90;;;;;;4926422;29;20593;-71
2022/06/17 01:31:24;;;;;;;3.47;2.60;;;16.30;99.90;;;;;;4930915;28;20233;-73
2022/06/17 01:33:51;;;;;;;3.20;2.53;;;16.50;99.90;;;;;;4929125;29;20202;-71
2022/06/17 01:36:29;;;;;;;2.90;2.60;;;16.50;99.90;;;;;;4933397;29;20199;-71
2022/06/17 01:38:59;;;;;;;5.07;2.87;;;16.40;99.90;;;;;;4931041;28;20218;-70
2022/06/17 01:41:29;;;;;;;6.10;2.90;;;16.20;99.90;;;;;;4930629;29;20223;-70
2022/06/17 01:44:15;;;;;;;3.53;2.70;;;16.20;99.90;;;;;;4930062;29;20218;-71
2022/06/17 01:46:44;;;;;;;2.67;2.47;;;16.00;99.90;;;;;;4928589;29;20255;-71
2022/06/17 01:49:26;;;;;;;3.93;2.70;;;15.80;99.90;;;;;;4927160;29;20317;-71
2022/06/17 01:52:02;;;;;;;4.73;3.03;;;15.60;99.90;;;;;;4940469;29;20218;-70
2022/06/17 01:54:52;;;;;;;3.57;2.90;;;15.40;99.90;;;;;;4937498;29;20202;-70
2022/06/17 01:57:25;;;;;;;4.30;2.90;;;15.40;99.90;;;;;;4935009;29;20723;-70
2022/06/17 01:59:58;;;;;;;5.40;2.90;;;15.50;99.90;;;;;;4936599;28;20213;-71
2022/06/17 02:02:25;;;;;;;5.43;2.70;;;15.70;99.90;;;;;;4929734;29;20234;-70
2022/06/17 02:04:58;;;;;;;7.37;2.90;;;15.80;99.90;;;;;;4937701;28;20206;-71
2022/06/17 02:07:34;;;;;;;3.47;2.67;;;15.80;99.90;;;;;;4938098;29;20836;-70
2022/06/17 02:10:01;;;;;;;3.87;2.83;;;15.70;99.90;;;;;;4936826;29;20219;-70
2022/06/17 02:12:29;;;;;;;4.33;2.90;;;15.70;99.90;;;;;;4932638;29;20233;-70
2022/06/17 02:14:56;;;;;;;3.70;2.77;;;15.60;99.90;;;;;;4935923;29;20203;-71
2022/06/17 02:17:28;;;;;;;4.10;2.63;;;15.50;99.90;;;;;;4931305;29;20277;-71
2022/06/17 02:19:55;;;;;;;6.23;3.30;;;15.40;99.90;;;;;;4931054;29;20211;-70
2022/06/17 02:22:30;;;;;;;6.10;2.80;;;15.30;99.90;;;;;;4934778;29;20227;-72
2022/06/17 02:25:00;;;;;;;4.60;3.00;;;15.20;99.90;;;;;;4934992;28;20205;-70
2022/06/17 02:27:28;;;;;;;4.33;2.80;;;15.10;99.90;;;;;;4935133;29;20218;-71
2022/06/17 02:29:56;;;;;;;4.30;2.87;;;15.00;99.90;;;;;;4934432;28;20634;-70
2022/06/17 02:32:23;;;;;;;5.27;3.03;;;14.90;99.90;;;;;;4933874;28;20214;-71
2022/06/17 02:34:59;;;;;;;3.50;2.67;;;14.80;99.90;;;;;;4934742;29;20195;-71
2022/06/17 02:37:28;;;;;;;4.23;2.73;;;14.80;99.90;;;;;;4935990;29;20289;-71
2022/06/17 02:39:57;;;;;;;4.47;2.80;;;14.90;99.90;;;;;;4933537;29;20612;-71
2022/06/17 02:42:35;;;;;;;3.50;2.43;;;14.90;99.90;;;;;;4936895;29;20229;-70
2022/06/17 02:45:15;;;;;;;3.47;3.00;;;14.80;99.90;;;;;;4930069;29;20617;-71
2022/06/17 02:47:42;;;;;;;3.50;2.63;;;14.80;99.90;;;;;;4929559;29;20902;-70
2022/06/17 02:50:18;;;;;;;3.77;2.50;;;14.70;99.90;;;;;;4931667;29;20232;-71
2022/06/17 02:52:47;;;;;;;4.00;2.90;;;14.70;99.90;;;;;;4933129;29;20236;-69
2022/06/17 02:55:27;;;;;;;4.37;2.87;;;14.80;99.90;;;;;;4929072;29;20656;-70
2022/06/17 02:58:04;;;;;;;8.03;3.00;;;15.00;99.90;;;;;;4937853;29;20245;-71
2022/06/17 03:00:30;;;;;;;5.17;3.20;;;15.00;99.90;;;;;;4928398;28;20706;-71
2022/06/17 03:03:03;;;;;;;4.70;3.07;;;15.10;99.90;;;;;;4934552;28;20258;-72
2022/06/17 03:05:38;;;;;;;4.23;2.87;;;15.00;99.90;;;;;;4935185;29;20610;-70
2022/06/17 03:08:23;;;;;;;4.27;2.93;;;14.80;99.90;;;;;;4932422;29;20203;-71
2022/06/17 03:10:52;;;;;;;3.50;2.93;;;14.70;99.90;;;;;;4930465;29;20230;-72
2022/06/17 03:13:30;;;;;;;8.97;3.40;;;14.60;99.90;;;;;;4928252;29;20210;-72
2022/06/17 03:16:00;;;;;;;4.00;3.10;;;14.60;99.90;;;;;;4934490;29;20675;-70
2022/06/17 03:18:28;;;;;;;4.83;3.30;;;14.50;99.90;;;;;;4937312;29;20202;-70
2022/06/17 03:20:55;;;;;;;3.30;2.87;;;14.50;99.90;;;;;;4933915;28;20229;-70
2022/06/17 03:23:47;;;;;;;6.13;3.17;;;14.50;99.90;;;;;;4936166;28;20348;-70
2022/06/17 03:26:19;;;;;;;5.37;3.03;;;14.50;99.90;;;;;;4929143;29;20206;-71
2022/06/17 03:28:49;;;;;;;4.93;3.50;;;14.60;99.90;;;;;;4936457;28;20229;-70
2022/06/17 03:31:21;;;;;;;3.43;2.90;;;14.60;99.90;;;;;;4930530;29;20234;-72
2022/06/17 03:33:55;;;;;;;4.73;3.10;;;14.50;99.90;;;;;;4935287;29;20217;-71
2022/06/17 03:36:29;;;;;;;4.70;3.53;;;14.70;99.90;;;;;;4931482;29;20206;-70
2022/06/17 03:38:59;;;;;;;5.47;3.20;;;14.90;99.90;;;;;;4959579;28;20213;-71
2022/06/17 03:41:46;;;;;;;4.60;3.40;;;14.90;99.90;;;;;;4932199;28;20226;-70
2022/06/17 03:44:16;;;;;;;4.13;3.10;;;14.90;99.90;;;;;;4937876;29;20197;-71
2022/06/17 03:46:54;;;;;;;5.20;3.00;;;14.80;99.90;;;;;;4934201;28;20274;-71
2022/06/17 03:49:27;;;;;;;4.73;3.50;;;14.70;99.90;;;;;;4930940;29;20226;-70
2022/06/17 03:52:02;;;;;;;4.07;2.90;;;14.60;99.90;;;;;;4932038;28;20594;-71
2022/06/17 03:54:29;;;;;;;4.80;2.90;;;14.70;99.90;;;;;;4934152;29;20202;-69
2022/06/17 03:56:56;;;;;;;5.20;3.13;;;14.70;99.90;;;;;;4931778;28;20205;-70
2022/06/17 03:59:26;;;;;;;3.93;2.80;;;14.80;99.90;;;;;;4932556;29;20199;-71
2022/06/17 04:01:59;;;;;;;5.30;2.83;;;14.80;99.90;;;;;;4930971;28;20221;-70
2022/06/17 04:04:33;;;;;;;3.30;2.77;;;14.80;99.90;;;;;;4932362;29;20199;-70
2022/06/17 04:07:00;;;;;;;3.87;2.80;;;14.80;99.90;;;;;;4929222;28;20242;-70
2022/06/17 04:09:30;;;;;;;4.57;2.60;;;14.70;99.90;;;;;;4930131;29;20221;-71
2022/06/17 04:12:01;;;;;;;5.30;2.93;;;14.70;99.90;;;;;;4930772;29;20225;-70
2022/06/17 04:14:29;;;;;;;3.90;2.90;;;14.70;99.90;;;;;;4931152;29;20214;-71
2022/06/17 04:17:25;;;;;;;6.17;2.90;;;14.70;99.90;;;;;;4924340;29;20201;-71
2022/06/17 04:20:12;;;;;;;3.60;2.97;;;14.80;99.90;;;;;;4929777;29;20225;-70
2022/06/17 04:22:40;;;;;;;4.60;3.33;;;14.80;99.90;;;;;;4927530;29;20239;-71
2022/06/17 04:25:13;;;;;;;6.03;3.30;;;15.00;99.90;;;;;;4932308;29;20210;-71
2022/06/17 04:27:56;;;;;;;4.43;3.37;;;15.00;99.90;;;;;;4933636;29;20558;-71
2022/06/17 04:30:27;;;;;;;4.50;2.90;;;15.10;99.90;;;;;;4931467;29;20335;-71
2022/06/17 04:32:58;;;;;;;4.40;3.33;;;15.20;99.90;;;;;;4931163;28;20217;-72
2022/06/17 04:35:25;;;;;;;3.50;3.20;;;15.20;99.90;;;;;;4928390;29;20198;-71
2022/06/17 04:37:52;;;;;;;4.10;3.67;;;15.30;99.90;;;;;;4933490;29;20471;-71
2022/06/17 04:40:41;;;;;;;7.03;3.13;;;15.40;99.90;;;;;;4928915;29;20312;-73
2022/06/17 04:43:36;;;;;;;4.40;3.37;;;15.50;99.90;;;;;;4929756;29;20199;-71
2022/06/17 04:46:24;;;;;;;4.20;2.97;;;15.70;99.90;;;;;;4921922;29;20210;-71
2022/06/17 04:48:57;;;;;;;3.47;2.97;;;15.90;99.90;;;;;;4930055;29;20737;-71
2022/06/17 04:51:29;;;;;;;4.73;2.83;;;16.00;99.90;;;;;;4929341;29;20719;-71
2022/06/17 04:54:02;;;;;;;3.30;2.80;;;16.10;99.90;;;;;;4927759;29;20202;-71
2022/06/17 04:56:36;;;;;;;6.13;2.97;;;16.30;99.90;;;;;;4930150;29;20221;-73
2022/06/17 04:59:34;;;;;;;6.47;2.77;;;16.30;99.90;;;;;;4930484;29;20199;-73
2022/06/17 05:02:10;;;;;;;5.77;2.90;;;16.50;99.90;;;;;;4924962;29;20226;-73
2022/06/17 05:04:37;;;;;;;5.73;2.93;;;16.40;99.90;;;;;;4930213;29;20202;-72
2022/06/17 05:07:04;;;;;;;4.37;3.00;;;16.50;99.90;;;;;;4926930;29;20679;-69
2022/06/17 05:09:44;;;;;;;5.47;2.90;;;16.40;99.90;;;;;;4933055;29;20219;-71
2022/06/17 05:12:25;;;;;;;4.77;3.13;;;16.40;99.90;;;;;;4929185;29;20221;-73
2022/06/17 05:14:57;;;;;;;5.23;3.37;;;16.30;99.90;;;;;;4936692;29;20693;-70
2022/06/17 05:17:23;;;;;;;7.43;3.50;;;16.40;99.90;;;;;;4938073;29;20199;-73
2022/06/17 05:19:50;;;;;;;7.57;4.33;;;16.50;99.90;;;;;;4930540;29;20262;-73
2022/06/17 05:22:34;;;;;;;7.20;4.10;;;16.70;99.90;;;;;;4942153;29;20230;-71
2022/06/17 05:25:04;;;;;;;5.23;4.13;;;16.70;99.90;;;;;;4930047;29;20202;-74
2022/06/17 05:27:30;;;;;;;4.57;4.00;;;16.90;99.90;;;;;;4922394;29;20199;-69
2022/06/17 05:29:57;;;;;;;6.37;4.10;;;17.10;99.90;;;;;;4934644;28;20223;-72
2022/06/17 05:32:24;;;;;;;5.03;3.80;;;17.40;99.90;;;;;;4922352;29;20227;-71
2022/06/17 05:34:51;;;;;;;7.50;4.07;;;17.50;99.90;;;;;;4929411;29;20198;-73
2022/06/17 05:37:17;;;;;;;4.57;3.53;;;17.50;99.90;;;;;;4931480;29;20195;-71
2022/06/17 05:39:44;;;;;;;6.93;3.77;;;17.60;99.90;;;;;;4930665;29;20203;-73
2022/06/17 05:42:12;;;;;;;4.60;3.40;;;17.60;99.90;;;;;;4927514;29;20222;-73
2022/06/17 05:44:39;;;;;;;6.40;4.30;;;17.70;99.90;;;;;;4932239;29;20619;-73
2022/06/17 05:47:07;;;;;;;5.53;3.20;;;17.50;99.90;;;;;;4926320;29;20635;-72
2022/06/17 05:49:34;;;;;;;6.00;3.63;;;17.60;99.90;;;;;;4927667;29;20222;-73
2022/06/17 05:52:00;;;;;;;6.03;3.67;;;17.70;99.90;;;;;;4933920;29;20222;-73
2022/06/17 05:54:27;;;;;;;4.97;3.37;;;17.80;99.90;;;;;;4931218;29;20652;-71
2022/06/17 05:56:54;;;;;;;5.87;3.13;;;17.80;99.90;;;;;;4934237;29;20277;-73
2022/06/17 05:59:20;;;;;;;4.40;3.03;;;18.00;99.90;;;;;;4930055;29;20195;-73
2022/06/17 06:01:47;;;;;;;9.97;3.13;;;18.30;99.90;;;;;;4917584;29;20370;-73
2022/06/17 06:04:14;;;;;;;5.37;2.87;;;18.40;99.90;;;;;;4923762;29;20360;-73
2022/06/17 06:06:41;;;;;;;4.27;2.80;;;18.50;99.90;;;;;;4924215;29;20207;-72
2022/06/17 06:09:09;;;;;;;5.63;2.70;;;18.70;99.90;;;;;;4923100;29;20227;-71
2022/06/17 06:11:35;;;;;;;4.97;2.80;;;18.90;99.90;;;;;;4918132;29;20223;-73
2022/06/17 06:14:02;;;;;;;3.50;2.77;;;19.10;99.90;;;;;;4921381;29;20214;-73
2022/06/17 06:16:30;;;;;;;4.43;2.60;;;19.20;99.90;;;;;;4921878;29;20199;-73
2022/06/17 06:18:57;;;;;;;4.40;2.70;;;19.30;99.90;;;;;;4924617;29;20203;-73
2022/06/17 06:21:23;;;;;;;4.07;2.57;;;19.70;99.90;;;;;;4923409;29;20581;-72
2022/06/17 06:23:50;;;;;;;2.97;2.17;;;20.20;99.90;;;;;;4922743;29;20234;-74
2022/06/17 06:26:18;;;;;;;4.33;2.37;;;20.20;99.90;;;;;;4922855;29;20203;-72
2022/06/17 06:28:45;;;;;;;4.23;2.40;;;20.50;99.90;;;;;;4927948;29;20203;-73
2022/06/17 06:31:23;;;;;;;3.43;2.60;;;20.80;99.90;;;;;;4925084;29;20293;-74
2022/06/17 06:33:50;;;;;;;3.55;2.38;;;20.90;99.90;;;;;;4927769;29;20198;-74
2022/06/17 06:36:17;;;;;;;4.18;2.58;;;21.10;99.90;;;;;;4926682;29;20207;-73
2022/06/17 06:38:44;;;;;;;5.53;2.38;;;21.10;99.90;;;;;;4927932;29;20203;-74
2022/06/17 06:41:11;;;;;;;3.70;2.30;;;21.00;99.90;;;;;;4927809;29;21030;-73
2022/06/17 06:43:38;;;;;;;4.20;2.40;;;21.00;99.90;;;;;;4928255;29;20568;-74
2022/06/17 06:46:08;;;;;;;4.00;2.97;;;21.00;99.90;;;;;;4928145;29;20199;-73
2022/06/17 06:48:34;;;;;;;3.47;2.27;;;21.10;99.90;;;;;;4928823;29;20199;-73
2022/06/17 06:51:01;;;;;;;2.80;2.33;;;21.20;99.90;;;;;;4927258;29;20583;-73
2022/06/17 06:53:28;;;;;;;4.50;2.03;;;21.40;99.90;;;;;;4926159;29;20199;-71
2022/06/17 06:55:55;;;;;;;5.30;1.92;;;21.70;99.90;;;;;;4928812;29;20203;-73
2022/06/17 06:58:24;;;;;;;3.20;2.05;;;21.90;99.90;;;;;;4927456;29;20207;-73
2022/06/17 07:00:54;;;;;;;3.13;1.80;;;22.10;99.90;;;;;;4925836;29;20237;-73
2022/06/17 07:03:22;;;;;;;3.10;2.00;;;22.40;99.90;;;;;;4930087;29;20218;-73
2022/06/17 07:05:51;;;;;;;4.88;2.03;;;22.60;99.90;;;;;;4928348;29;20210;-73
2022/06/17 07:08:20;;;;;;;2.10;1.90;;;23.40;99.90;;;;;;4929205;29;20649;-74
2022/06/17 07:10:49;;;;;;;4.60;1.75;;;24.10;99.90;;;;;;4928572;29;20226;-74
2022/06/17 07:13:17;;;;;;;4.97;1.80;;;25.00;99.90;;;;;;4927395;29;20214;-74
2022/06/17 07:15:45;;;;;;;4.20;1.90;;;25.70;99.90;;;;;;4927877;29;20203;-74
2022/06/17 07:18:24;;;;;;;2.63;2.00;;;26.30;99.90;;;;;;4926436;29;20409;-72
2022/06/17 07:20:54;;;;;;;9.05;2.00;;;26.60;99.90;;;;;;4926702;29;20226;-74
2022/06/17 07:23:29;;;;;;;3.83;2.00;;;26.90;99.90;;;;;;4950555;28;20214;-73
2022/06/17 07:26:02;;;;;;;2.83;1.90;;;26.90;99.90;;;;;;4927001;29;20230;-73
2022/06/17 07:28:29;;;;;;;3.45;1.88;;;26.10;99.90;;;;;;4926312;29;20199;-72
2022/06/17 07:30:56;;;;;;;4.32;2.20;;;26.60;99.90;;;;;;4927453;29;20230;-72
2022/06/17 07:33:25;;;;;;;2.17;1.92;;;27.10;99.90;;;;;;4927055;29;20213;-70
2022/06/17 07:35:55;;;;;;;2.20;1.60;;;27.50;99.90;;;;;;4927405;29;20259;-73
2022/06/17 07:41:14;;;;;;;3.03;1.80;;;28.50;98.80;;;;;;4927205;29;20222;-73
2022/06/17 07:43:45;;;;;;;3.65;2.00;;;28.60;98.10;;;;;;4927211;29;20206;-73
2022/06/17 07:46:20;;;;;;;2.25;1.70;;;28.80;98.10;;;;;;4926362;29;20583;-74
2022/06/17 07:48:47;;;;;;;6.57;1.70;;;28.70;98.40;;;;;;4926587;29;20668;-73
2022/06/17 07:51:15;;;;;;;2.80;1.50;;;28.80;97.60;;;;;;4928940;29;20318;-72
2022/06/17 07:53:42;;;;;;;2.50;1.70;;;29.40;97.30;;;;;;4933761;29;20199;-74
2022/06/17 07:56:15;;;;;;;3.88;1.58;;;29.50;97.20;;;;;;4929090;29;20203;-71
2022/06/17 07:58:43;;;;;;;1.88;1.40;;;29.70;96.60;;;;;;4928596;29;20231;-72
2022/06/17 08:01:13;;;;;;;2.58;1.60;;;29.80;96.10;;;;;;4927451;29;21861;-73
2022/06/17 08:03:41;;;;;;;2.72;1.60;;;29.30;94.20;;;;;;4931145;29;20203;-75
2022/06/17 08:06:10;;;;;;;4.30;1.73;;;29.30;94.60;;;;;;4928223;29;20646;-81
2022/06/17 08:08:37;;;;;;;3.95;1.70;;;29.90;95.00;;;;;;4928262;28;20675;-74
2022/06/17 08:11:04;;;;;;;1.80;1.58;;;30.20;93.80;;;;;;4928673;29;20803;-73
2022/06/17 08:13:30;;;;;;;2.55;1.58;;;28.80;93.50;;;;;;4926774;29;20203;-72
2022/06/17 08:16:01;;;;;;;2.22;1.40;;;28.00;94.80;;;;;;4927204;29;20203;-72
2022/06/17 08:18:28;;;;;;;6.88;1.90;;;27.70;95.00;;;;;;4928967;29;20191;-71
2022/06/17 08:20:55;;;;;;;6.25;1.83;;;27.70;95.60;;;;;;4927141;29;20235;-69
2022/06/17 08:23:22;;;;;;;3.70;1.95;;;26.90;95.20;;;;;;4927828;29;20214;-73
2022/06/17 08:25:49;;;;;;;3.83;1.90;;;26.30;96.40;;;;;;4926800;29;20206;-73
2022/06/17 08:28:17;;;;;;;2.78;1.83;;;26.20;97.50;;;;;;4927586;29;20207;-73
2022/06/17 08:30:51;;;;;;;7.13;2.05;;;26.40;96.80;;;;;;4925164;29;20892;-72
2022/06/17 08:33:25;;;;;;;5.05;1.70;;;26.60;96.80;;;;;;4924515;29;20265;-73
2022/06/17 08:36:12;;;;;;;4.38;1.90;;;26.70;96.60;;;;;;4927508;29;20202;-73
2022/06/17 08:38:45;;;;;;;4.18;1.88;;;26.80;96.50;;;;;;4927661;29;20607;-73
2022/06/17 08:41:23;;;;;;;2.90;1.73;;;26.90;96.80;;;;;;4925789;29;20225;-73
2022/06/17 08:44:32;;;;;;;5.10;1.95;;;26.60;95.50;;;;;;4926941;29;20477;-72
2022/06/17 08:47:30;;;;;;;4.63;1.80;;;26.20;96.30;;;;;;4924306;29;20273;-72
2022/06/17 08:50:00;;;;;;;2.45;1.63;;;26.30;96.40;;;;;;4926827;29;20230;-73
2022/06/17 08:53:02;;;;;;;4.35;2.60;;;26.50;95.90;;;;;;4925475;29;20214;-72
2022/06/17 08:55:39;;;;;;;3.33;1.70;;;26.80;96.10;;;;;;4923200;29;20199;-72
2022/06/17 08:58:09;;;;;;;2.17;1.67;;;26.80;95.50;;;;;;4925168;29;20266;-73
2022/06/17 09:00:42;;;;;;;1.77;1.30;;;27.00;95.40;;;;;;4922873;29;20234;-72
2022/06/17 09:03:26;;;;;;;4.63;1.70;;;27.20;95.10;;;;;;4919928;29;20673;-74
2022/06/17 09:06:06;;;;;;;2.63;1.75;;;27.40;94.80;;;;;;4926595;29;20207;-73
2022/06/17 09:08:32;;;;;;;2.67;1.58;;;27.40;94.50;;;;;;4926269;29;20207;-73
2022/06/17 09:11:15;;;;;;;4.13;1.70;;;27.30;94.40;;;;;;4925391;29;20234;-73
2022/06/17 09:14:18;;;;;;;2.45;1.50;;;27.30;94.90;;;;;;4926246;29;20717;-73
2022/06/17 09:16:55;;;;;;;3.92;1.60;;;27.40;95.00;;;;;;4925791;29;20213;-74
2022/06/17 09:19:28;;;;;;;8.65;1.90;;;27.10;94.80;;;;;;4925802;29;20630;-73
2022/06/17 09:22:00;;;;;;;3.65;1.75;;;26.80;95.20;;;;;;4922607;29;20754;-73
2022/06/17 09:24:36;;;;;;;5.03;1.88;;;26.80;95.10;;;;;;4921612;29;21190;-73
2022/06/17 09:27:06;;;;;;;2.70;1.77;;;27.00;94.90;;;;;;4924820;29;20705;-73
2022/06/17 09:29:42;;;;;;;5.95;1.70;;;27.00;95.50;;;;;;4923293;29;20679;-73
2022/06/17 09:32:34;;;;;;;4.43;1.90;;;27.20;95.60;;;;;;4923033;29;21080;-72
2022/06/17 09:35:26;;;;;;;4.97;1.90;;;27.30;95.50;;;;;;4920762;29;20211;-73
2022/06/17 09:38:08;;;;;;;4.15;1.90;;;27.30;95.10;;;;;;4925741;29;20258;-73
2022/06/17 09:40:45;;;;;;;5.28;1.75;;;27.50;95.50;;;;;;4925175;29;20214;-73
2022/06/17 09:43:23;;;;;;;2.55;1.80;;;27.70;95.00;;;;;;4920338;29;20202;-74
2022/06/17 09:45:56;;;;;;;3.63;1.90;;;28.00;94.80;;;;;;4921968;29;20202;-73
2022/06/17 09:48:48;;;;;;;3.95;1.80;;;28.10;94.30;;;;;;4922270;29;20274;-73
2022/06/17 09:51:18;;;;;;;3.50;1.73;;;28.00;93.40;;;;;;4922207;29;20261;-74
2022/06/17 09:54:04;;;;;;;2.00;1.70;;;27.80;93.70;;;;;;4924501;29;20261;-71
2022/06/17 09:56:47;;;;;;;2.78;1.70;;;27.50;93.90;;;;;;4921905;29;20209;-74
2022/06/17 09:59:19;;;;;;;3.15;1.70;;;27.30;93.80;;;;;;4923089;29;20988;-73
2022/06/17 10:01:47;;;;;;;5.47;1.80;;;27.20;94.10;;;;;;4925311;29;20241;-73
2022/06/17 10:04:16;;;;;;;3.83;1.90;;;27.60;94.50;;;;;;4926518;29;20474;-74
2022/06/17 10:07:07;;;;;;;1.80;1.50;;;27.90;94.30;;;;;;4928912;29;20206;-74
2022/06/17 10:09:44;;;;;;;2.70;1.65;;;28.10;94.10;;;;;;4924731;29;20226;-73
2022/06/17 10:12:34;;;;;;;3.08;2.00;;;28.30;93.50;;;;;;4927203;29;20277;-73
2022/06/17 10:15:08;;;;;;;3.22;1.73;;;28.30;93.80;;;;;;4927228;29;20706;-73
2022/06/17 10:20:56;;;;;;;3.83;1.50;;;28.60;93.70;;;;;;4927386;29;20598;-73
2022/06/17 10:23:52;;;;;;;3.80;1.88;;;28.70;93.40;;;;;;4928604;29;21093;-73
2022/06/17 10:26:56;;;;;;;3.28;1.60;;;28.90;93.40;;;;;;4923981;29;20199;-72
2022/06/17 10:30:00;;;;;;;2.72;1.77;;;29.00;93.30;;;;;;4925857;29;20237;-73
2022/06/17 10:32:29;;;;;;;2.67;1.50;;;29.20;92.50;;;;;;4927102;29;20745;-73
2022/06/17 10:35:01;;;;;;;3.17;1.73;;;29.20;91.90;;;;;;4928977;29;20210;-72
2022/06/17 10:37:30;;;;;;;2.05;1.50;;;29.30;91.20;;;;;;4930126;29;20653;-72
2022/06/17 10:40:20;;;;;;;3.70;1.58;;;29.30;91.40;;;;;;4925562;29;20230;-72
2022/06/17 10:42:48;;;;;;;3.40;1.85;;;29.50;92.50;;;;;;4927210;29;20222;-74
2022/06/17 10:45:17;;;;;;;1.60;1.50;;;29.40;91.80;;;;;;4926059;29;20683;-73
2022/06/17 10:47:54;;;;;;;3.25;1.70;;;29.50;91.50;;;;;;4929069;29;20695;-73
2022/06/17 10:50:29;;;;;;;4.32;1.50;;;29.80;91.40;;;;;;4929663;29;20261;-75
2022/06/17 10:53:46;;;;;;;3.88;1.88;;;29.80;91.20;;;;;;4925373;29;20230;-73
2022/06/17 10:56:20;;;;;;;1.50;1.40;;;29.80;91.60;;;;;;4925531;29;20207;-73
2022/06/17 10:58:57;;;;;;;1.80;1.50;;;29.80;91.00;;;;;;4924616;29;20210;-73
2022/06/17 11:01:25;;;;;;;4.57;1.63;;;29.80;90.80;;;;;;4924380;29;20293;-73
2022/06/17 11:04:11;;;;;;;3.53;1.67;;;29.90;90.90;;;;;;4928748;29;20697;-73
2022/06/17 11:06:49;;;;;;;2.85;1.50;;;30.10;90.80;;;;;;4928483;29;20211;-73
2022/06/17 11:09:22;;;;;;;3.78;1.50;;;30.30;91.00;;;;;;4926751;29;20577;-73
2022/06/17 11:12:04;;;;;;;2.67;1.73;;;30.40;89.30;;;;;;4929375;29;20231;-73
2022/06/17 11:14:35;;;;;;;2.85;1.60;;;30.50;88.40;;;;;;4925532;29;20219;-72
2022/06/17 11:17:11;;;;;;;4.65;2.10;;;30.60;87.80;;;;;;4922985;29;20249;-73
2022/06/17 11:19:41;;;;;;;3.88;2.85;;;30.60;87.20;;;;;;4928840;29;20691;-73
2022/06/17 11:22:26;;;;;;;1.80;1.42;;;30.50;88.70;;;;;;4923636;29;20310;-73
2022/06/17 11:24:59;;;;;;;1.88;1.52;;;30.60;87.50;;;;;;4927271;29;20203;-74
2022/06/17 11:27:41;;;;;;;3.28;1.50;;;30.50;87.00;;;;;;4928335;29;20237;-73
2022/06/17 11:30:17;;;;;;;1.80;1.42;;;30.50;86.00;;;;;;4928220;29;20214;-72
2022/06/17 11:32:45;;;;;;;4.25;1.48;;;30.50;86.40;;;;;;4928672;29;20233;-73
2022/06/17 11:35:36;;;;;;;1.92;1.40;;;30.40;86.20;;;;;;4924115;29;20203;-73
2022/06/17 11:38:10;;;;;;;2.78;1.55;;;30.40;87.80;;;;;;4924139;29;20199;-72
2022/06/17 11:41:00;;;;;;;1.70;1.60;;;30.30;87.00;;;;;;4927061;29;20238;-74
2022/06/17 11:43:38;;;;;;;1.48;1.25;;;30.20;86.50;;;;;;4929147;29;20312;-74
2022/06/17 11:46:09;;;;;;;3.50;1.50;;;30.20;87.10;;;;;;4928615;29;20722;-74
2022/06/17 11:48:49;;;;;;;2.67;1.60;;;29.80;85.60;;;;;;4927933;29;20217;-72
2022/06/17 11:51:25;;;;;;;2.47;1.38;;;29.70;86.00;;;;;;4927465;29;20600;-71
2022/06/17 11:53:56;;;;;;;2.85;1.60;;;29.50;87.60;;;;;;4928646;29;20207;-74
2022/06/17 11:56:34;;;;;;;3.03;1.90;;;29.50;88.90;;;;;;4924597;29;20568;-73
2022/06/17 11:59:13;;;;;;;2.80;1.70;;;29.70;89.00;;;;;;4926234;29;20277;-74
2022/06/17 12:01:46;;;;;;;5.80;2.03;;;29.80;87.70;;;;;;4925556;29;20266;-74
2022/06/17 12:04:33;;;;;;;2.75;1.95;;;30.00;87.90;;;;;;4924177;29;20207;-73
2022/06/17 12:07:00;;;;;;;2.67;1.77;;;30.10;87.50;;;;;;4924748;29;20226;-74
2022/06/17 12:09:38;;;;;;;5.50;1.85;;;30.20;87.20;;;;;;4924166;29;20218;-74
2022/06/17 12:12:10;;;;;;;1.67;1.50;;;30.40;87.40;;;;;;4923013;29;20238;-74
2022/06/17 12:15:01;;;;;;;1.92;1.35;;;30.40;86.40;;;;;;4924286;29;20895;-73
2022/06/17 12:17:29;;;;;;;3.17;1.58;;;30.40;86.90;;;;;;4927883;29;20200;-73
2022/06/17 12:20:00;;;;;;;2.47;1.50;;;30.50;87.50;;;;;;4923804;29;20754;-73
2022/06/17 12:22:40;;;;;;;1.40;1.30;;;30.60;85.50;;;;;;4924856;29;20226;-74
2022/06/17 12:25:09;;;;;;;2.38;1.20;;;30.60;85.80;;;;;;4922915;29;20222;-74
2022/06/17 12:27:46;;;;;;;2.05;0.98;;;30.60;84.70;;;;;;4924513;29;20214;-73
2022/06/17 12:31:01;;;;;;;2.22;1.30;;;30.70;85.60;;;;;;4922624;29;20226;-73
2022/06/17 12:33:38;;;;;;;1.65;1.30;;;30.80;85.20;;;;;;4923992;29;20743;-73
2022/06/17 12:36:18;;;;;;;2.97;1.33;;;30.70;84.80;;;;;;4926117;29;20207;-73
2022/06/17 12:39:01;;;;;;;1.63;1.10;;;30.80;84.40;;;;;;4924365;29;20198;-73
2022/06/17 12:41:59;;;;;;;2.92;1.20;;;30.90;84.90;;;;;;4921841;29;20256;-72
2022/06/17 12:44:50;;;;;;;2.15;1.20;;;30.90;82.80;;;;;;4923570;29;20207;-72
2022/06/17 12:47:37;;;;;;;1.45;1.30;;;31.00;83.80;;;;;;4922446;29;20254;-72
2022/06/17 12:53:14;;;;;;;2.35;1.10;;;31.00;80.20;;;;;;4925044;29;20738;-72
2022/06/17 12:56:11;;;;;;;1.52;1.42;;;31.00;78.90;;;;;;4924216;29;20210;-72
2022/06/17 12:58:50;;;;;;;1.10;0.98;;;30.50;79.20;;;;;;4925526;29;20218;-72
2022/06/17 13:01:24;;;;;;;2.40;1.40;;;30.20;80.20;;;;;;4920277;29;20841;-71
2022/06/17 13:04:13;;;;;;;4.63;1.38;;;30.10;80.90;;;;;;4924741;29;20278;-72
2022/06/17 13:07:04;;;;;;;5.50;2.38;;;30.30;82.40;;;;;;4924145;29;20348;-70
2022/06/17 13:13:07;;;;;;;3.22;1.52;;;30.80;81.10;;;;;;4925045;29;20238;-72
2022/06/17 13:15:43;;;;;;;1.60;1.10;;;31.00;81.70;;;;;;4923800;29;20199;-74
2022/06/17 13:18:17;;;;;;;2.80;1.27;;;31.20;80.70;;;;;;4926840;29;20199;-72
2022/06/17 13:20:54;;;;;;;1.95;1.30;;;31.30;80.40;;;;;;4923961;29;20386;-73
2022/06/17 13:23:46;;;;;;;2.63;1.55;;;31.30;81.40;;;;;;4926604;29;20206;-72
2022/06/17 13:26:35;;;;;;;4.03;1.30;;;31.30;80.20;;;;;;4925568;29;20199;-72
2022/06/17 13:29:06;;;;;;;2.53;1.60;;;31.40;80.90;;;;;;4949789;28;20199;-72
2022/06/17 13:32:01;;;;;;;1.30;1.20;;;31.40;79.50;;;;;;4926326;29;20226;-70
2022/06/17 13:34:37;;;;;;;1.00;0.90;;;31.50;79.60;;;;;;4924832;29;20226;-70
2022/06/17 13:37:19;;;;;;;3.75;1.40;;;31.50;78.90;;;;;;4929994;29;20325;-73
2022/06/17 13:39:52;;;;;;;2.53;1.20;;;31.60;79.70;;;;;;4929400;29;20208;-72
2022/06/17 13:42:20;;;;;;;3.03;1.20;;;31.60;78.70;;;;;;4926697;29;20737;-73